createdAt,value
2022-10-24T00:00:58.600Z,99406.72
2022-10-24T00:03:49.113Z,99405.78
2022-10-24T00:06:37.017Z,99393.44
2022-10-24T00:09:24.944Z,99394.66
2022-10-24T00:12:13.066Z,99390.38
2022-10-24T00:15:01.665Z,99396.31
2022-10-24T00:17:49.648Z,99401.09
2022-10-24T00:20:39.084Z,99403.06
2022-10-24T00:23:27.124Z,99412.50
2022-10-24T00:26:16.728Z,99397.34
2022-10-24T00:29:05.430Z,99386.66
2022-10-24T00:31:53.326Z,99384.06
2022-10-24T00:34:41.600Z,99392.84
2022-10-24T00:37:30.855Z,99392.84
2022-10-24T00:40:20.798Z,99392.97
2022-10-24T00:43:15.124Z,99393.78
2022-10-24T00:46:03.494Z,99387.84
2022-10-24T00:48:54.658Z,99387.88
2022-10-24T00:51:43.548Z,99391.53
2022-10-24T00:54:32.837Z,99385.03
2022-10-24T00:57:26.134Z,99389.13
2022-10-24T01:00:17.527Z,99382.56
2022-10-24T01:03:05.515Z,99388.47
2022-10-24T01:06:10.507Z,99388.81
2022-10-24T01:09:10.582Z,99380.88
2022-10-24T01:12:20.016Z,99389.78
2022-10-24T01:15:15.730Z,99390.03
2022-10-24T01:18:11.001Z,99396.91
2022-10-24T01:21:11.902Z,99385.63
2022-10-24T01:24:15.496Z,99388.59
2022-10-24T01:27:26.354Z,99384.97
2022-10-24T01:30:18.320Z,99386.00
2022-10-24T01:33:11.263Z,99372.25
2022-10-24T01:36:04.360Z,99363.94
2022-10-24T01:38:58.915Z,99358.38
2022-10-24T01:41:48.869Z,99354.41
2022-10-24T01:44:40.530Z,99358.22
2022-10-24T01:47:43.150Z,99350.59
2022-10-24T01:50:34.975Z,99329.09
2022-10-24T01:53:25.159Z,99344.91
2022-10-24T01:56:13.259Z,99339.53
2022-10-24T01:59:06.664Z,99338.38
2022-10-24T02:01:56.457Z,99344.13
2022-10-24T02:04:51.440Z,99341.16
2022-10-24T02:07:41.997Z,99337.06
2022-10-24T02:10:33.651Z,99341.69
2022-10-24T02:13:29.746Z,99346.38
2022-10-24T02:16:20.162Z,99348.66
2022-10-24T02:19:08.110Z,99349.59
2022-10-24T02:22:07.599Z,99305.66
2022-10-24T02:24:59.908Z,99346.13
2022-10-24T02:27:54.324Z,99348.69
2022-10-24T02:30:47.659Z,99344.59
2022-10-24T02:33:36.935Z,99351.81
2022-10-24T02:36:28.728Z,99351.56
2022-10-24T02:39:19.782Z,99351.81
2022-10-24T02:42:09.568Z,99341.06
2022-10-24T02:44:58.438Z,99340.78
2022-10-24T02:47:48.604Z,99341.09
2022-10-24T02:50:38.377Z,99333.38
2022-10-24T02:53:27.076Z,99328.78
2022-10-24T02:56:16.338Z,99330.59
2022-10-24T02:59:04.348Z,99337.91
2022-10-24T03:01:52.433Z,99327.78
2022-10-24T03:04:40.411Z,99324.63
2022-10-24T03:10:21.468Z,99326.13
2022-10-24T03:13:10.701Z,99325.00
2022-10-24T03:15:58.685Z,99337.16
2022-10-24T03:18:46.571Z,99341.19
2022-10-24T03:21:34.709Z,99335.06
2022-10-24T03:24:31.221Z,99334.06
2022-10-24T03:27:31.405Z,99309.31
2022-10-24T03:30:20.853Z,99337.03
2022-10-24T03:33:08.872Z,99351.31
2022-10-24T03:35:56.894Z,99328.78
2022-10-24T03:38:44.790Z,99359.56
2022-10-24T03:41:32.688Z,99363.38
2022-10-24T03:44:20.628Z,99369.16
2022-10-24T03:47:09.954Z,99359.38
2022-10-24T03:49:57.861Z,99360.56
2022-10-24T03:52:47.473Z,99343.31
2022-10-24T03:55:36.093Z,99363.03
2022-10-24T03:58:24.056Z,99365.31
2022-10-24T04:01:17.409Z,99358.38
2022-10-24T04:04:06.954Z,99363.72
2022-10-24T04:06:54.846Z,99367.38
2022-10-24T04:09:42.766Z,99349.66
2022-10-24T04:12:30.722Z,99360.13
2022-10-24T04:15:18.644Z,99351.34
2022-10-24T04:18:08.204Z,99346.50
2022-10-24T04:20:57.424Z,99354.03
2022-10-24T04:23:45.587Z,99355.41
2022-10-24T04:26:33.483Z,99346.00
2022-10-24T04:29:21.560Z,99355.66
2022-10-24T04:32:09.515Z,99345.06
2022-10-24T04:34:57.404Z,99359.88
2022-10-24T04:37:46.666Z,99368.03
2022-10-24T04:40:34.560Z,99364.72
2022-10-24T04:43:22.977Z,99350.44
2022-10-24T04:46:11.079Z,99361.16
2022-10-24T04:48:59.007Z,99359.22
2022-10-24T04:51:46.887Z,99353.81
2022-10-24T04:54:36.352Z,99341.41
2022-10-24T04:57:24.283Z,99340.16
2022-10-24T05:00:13.122Z,99345.00
2022-10-24T05:03:01.112Z,99338.00
2022-10-24T05:05:49.173Z,99335.00
2022-10-24T05:08:37.138Z,99342.41
2022-10-24T05:11:26.396Z,99345.56
2022-10-24T05:14:15.101Z,99349.16
2022-10-24T05:17:03.030Z,99358.34
2022-10-24T05:19:50.929Z,99349.50
2022-10-24T05:22:38.882Z,99361.66
2022-10-24T05:25:26.789Z,99364.25
2022-10-24T05:28:16.010Z,99358.91
2022-10-24T05:31:04.237Z,99359.56
2022-10-24T05:33:52.271Z,99351.34
2022-10-24T05:36:40.168Z,99374.97
2022-10-24T05:39:28.125Z,99387.41
2022-10-24T05:42:16.059Z,99391.97
2022-10-24T05:45:06.323Z,99391.97
2022-10-24T05:47:54.303Z,99391.84
2022-10-24T05:50:42.750Z,99401.09
2022-10-24T05:53:30.712Z,99418.81
2022-10-24T05:56:18.592Z,99414.38
2022-10-24T05:59:06.498Z,99427.84
2022-10-24T06:01:55.876Z,99424.72
2022-10-24T06:04:23.602Z,99426.94
2022-10-24T06:06:51.386Z,99422.28
2022-10-24T06:09:19.092Z,99425.50
2022-10-24T06:11:46.697Z,99425.28
2022-10-24T06:14:14.362Z,99421.28
2022-10-24T06:16:42.008Z,99428.72
2022-10-24T06:19:11.046Z,99426.50
2022-10-24T06:21:38.662Z,99442.78
2022-10-24T06:24:06.551Z,99435.28
2022-10-24T06:26:34.164Z,99441.88
2022-10-24T06:29:01.779Z,99448.19
2022-10-24T06:31:29.535Z,99452.44
2022-10-24T06:33:57.160Z,99449.97
2022-10-24T06:36:28.101Z,99443.28
2022-10-24T06:38:58.476Z,99457.53
2022-10-24T06:41:26.168Z,99459.88
2022-10-24T06:43:56.258Z,99455.84
2022-10-24T06:46:24.425Z,99457.97
2022-10-24T06:48:54.543Z,99462.53
2022-10-24T06:51:22.285Z,99470.31
2022-10-24T06:53:51.533Z,99476.56
2022-10-24T06:56:19.593Z,99464.13
2022-10-24T06:58:47.225Z,99380.53
2022-10-24T07:01:17.133Z,99473.00
2022-10-24T07:03:45.566Z,99435.97
2022-10-24T07:06:17.669Z,99466.31
2022-10-24T07:08:45.909Z,99474.53
2022-10-24T07:11:15.632Z,99476.53
2022-10-24T07:13:43.220Z,99485.31
2022-10-24T07:16:10.892Z,99479.19
2022-10-24T07:18:38.935Z,99478.31
2022-10-24T07:21:09.092Z,99480.53
2022-10-24T07:23:36.991Z,99472.38
2022-10-24T07:26:07.066Z,99438.00
2022-10-24T07:28:37.329Z,99481.47
2022-10-24T07:31:05.364Z,99474.38
2022-10-24T07:33:34.233Z,99496.09
2022-10-24T07:36:01.949Z,99495.50
2022-10-24T07:38:29.589Z,99482.03
2022-10-24T07:40:57.226Z,99478.50
2022-10-24T07:43:24.824Z,99479.59
2022-10-24T07:45:53.874Z,99470.97
2022-10-24T07:48:21.489Z,99471.50
2022-10-24T07:50:49.575Z,99463.50
2022-10-24T07:53:17.689Z,99459.72
2022-10-24T07:55:46.122Z,99464.28
2022-10-24T07:58:14.696Z,99457.50
2022-10-24T08:00:45.228Z,99463.69
2022-10-24T08:03:14.640Z,99460.56
2022-10-24T08:05:42.790Z,99471.59
2022-10-24T08:08:27.392Z,99471.69
2022-10-24T08:10:59.013Z,99471.50
2022-10-24T08:13:26.672Z,99472.78
2022-10-24T08:15:54.326Z,99475.22
2022-10-24T08:18:23.413Z,99471.19
2022-10-24T08:20:59.038Z,99466.63
2022-10-24T08:23:26.773Z,99465.94
2022-10-24T08:25:54.694Z,99470.63
2022-10-24T08:28:23.436Z,99475.59
2022-10-24T08:30:58.594Z,99479.09
2022-10-24T08:33:27.649Z,99477.44
2022-10-24T08:35:59.587Z,99487.88
2022-10-24T08:38:27.569Z,99490.84
2022-10-24T08:40:55.832Z,99492.47
2022-10-24T08:43:24.676Z,99482.84
2022-10-24T08:46:03.306Z,99465.47
2022-10-24T08:48:38.647Z,99466.13
2022-10-24T08:51:20.564Z,99471.09
2022-10-24T08:53:51.237Z,99466.56
2022-10-24T08:56:19.490Z,99462.69
2022-10-24T08:58:48.072Z,99469.97
2022-10-24T09:01:31.021Z,99464.41
2022-10-24T09:04:04.121Z,99470.66
2022-10-24T09:06:33.689Z,99462.81
2022-10-24T09:09:03.279Z,99446.00
2022-10-24T09:11:40.412Z,99477.69
2022-10-24T09:14:13.829Z,99464.50
2022-10-24T09:16:43.386Z,99469.25
2022-10-24T09:19:16.262Z,99479.06
2022-10-24T09:21:45.406Z,99480.72
2022-10-24T09:24:25.184Z,99484.06
2022-10-24T09:26:53.584Z,99482.97
2022-10-24T09:29:21.314Z,99494.56
2022-10-24T09:31:50.040Z,99498.59
2022-10-24T09:34:18.980Z,99480.09
2022-10-24T09:36:46.830Z,99471.28
2022-10-24T09:39:29.765Z,99494.13
2022-10-24T09:41:58.622Z,99488.53
2022-10-24T09:44:33.406Z,99503.44
2022-10-24T09:47:02.748Z,99490.53
2022-10-24T09:49:36.255Z,99497.50
2022-10-24T09:52:09.231Z,99499.13
2022-10-24T09:54:37.595Z,99492.22
2022-10-24T09:57:08.623Z,99503.53
2022-10-24T09:59:41.464Z,99506.25
2022-10-24T10:02:24.294Z,99494.78
2022-10-24T10:05:19.182Z,99514.06
2022-10-24T10:07:49.878Z,99511.50
2022-10-24T10:10:28.036Z,99510.59
2022-10-24T10:13:05.744Z,99503.38
2022-10-24T10:15:37.731Z,99519.94
2022-10-24T10:18:21.487Z,99522.06
2022-10-24T10:21:10.884Z,99526.56
2022-10-24T10:23:41.308Z,99529.00
2022-10-24T10:26:22.868Z,99520.66
2022-10-24T10:28:59.845Z,99523.97
2022-10-24T10:31:35.186Z,99526.41
2022-10-24T10:34:21.758Z,99516.34
2022-10-24T10:37:22.885Z,99528.84
2022-10-24T10:40:06.377Z,99526.72
2022-10-24T10:42:41.838Z,99535.78
2022-10-24T10:45:19.164Z,99537.16
2022-10-24T10:48:01.866Z,99534.06
2022-10-24T10:50:37.501Z,99540.44
2022-10-24T10:53:21.435Z,99529.47
2022-10-24T10:55:56.417Z,99532.28
2022-10-24T10:58:34.198Z,99528.03
2022-10-24T11:01:13.695Z,99521.53
2022-10-24T11:03:48.887Z,99533.47
2022-10-24T11:06:29.458Z,99542.31
2022-10-24T11:09:19.493Z,99523.91
2022-10-24T11:11:53.119Z,99523.31
2022-10-24T11:14:30.705Z,99525.09
2022-10-24T11:17:03.846Z,99530.56
2022-10-24T11:19:40.300Z,99520.44
2022-10-24T11:22:16.670Z,99536.69
2022-10-24T11:24:52.118Z,99522.44
2022-10-24T11:27:26.466Z,99513.44
2022-10-24T11:29:57.722Z,99528.53
2022-10-24T11:32:33.482Z,99527.13
2022-10-24T11:35:06.120Z,99534.19
2022-10-24T11:37:37.526Z,99529.53
2022-10-24T11:40:13.268Z,99511.63
2022-10-24T11:42:47.534Z,99517.84
2022-10-24T11:45:17.973Z,99508.66
2022-10-24T11:48:02.835Z,99502.31
2022-10-24T11:50:37.085Z,99499.84
2022-10-24T11:53:14.512Z,99497.56
2022-10-24T11:55:50.045Z,99499.31
2022-10-24T11:58:21.509Z,99494.31
2022-10-24T12:01:11.197Z,99510.75
2022-10-24T12:04:02.955Z,99461.59
2022-10-24T12:06:57.883Z,99497.16
2022-10-24T12:09:45.623Z,99494.53
2022-10-24T12:12:32.695Z,99486.41
2022-10-24T12:15:18.655Z,99494.81
2022-10-24T12:18:05.706Z,99476.72
2022-10-24T12:20:34.484Z,99473.09
2022-10-24T12:23:04.155Z,99480.19
2022-10-24T12:25:35.360Z,99474.88
2022-10-24T12:28:08.406Z,99480.38
2022-10-24T12:30:37.714Z,99462.75
2022-10-24T12:33:12.214Z,99476.53
2022-10-24T12:35:51.851Z,99466.63
2022-10-24T12:39:04.346Z,99478.06
2022-10-24T12:41:43.127Z,99457.34
2022-10-24T12:44:42.045Z,99483.56
2022-10-24T12:47:32.360Z,99476.63
2022-10-24T12:50:21.566Z,99474.38
2022-10-24T12:53:04.622Z,99468.88
2022-10-24T12:56:11.349Z,99472.63
2022-10-24T12:58:43.004Z,99465.09
2022-10-24T13:01:25.808Z,99464.91
2022-10-24T13:04:17.634Z,99440.59
2022-10-24T13:07:01.498Z,99454.00
2022-10-24T13:09:39.405Z,99462.56
2022-10-24T13:12:20.285Z,99467.38
2022-10-24T13:15:02.447Z,99443.88
2022-10-24T13:17:40.397Z,99466.19
2022-10-24T13:20:19.109Z,99466.56
2022-10-24T13:22:50.768Z,99473.88
2022-10-24T13:25:21.470Z,99458.66
2022-10-24T13:28:23.274Z,99469.16
2022-10-24T13:30:53.227Z,99449.28
2022-10-24T13:33:42.389Z,99457.28
2022-10-24T13:36:17.607Z,99448.78
2022-10-24T13:38:50.221Z,99461.88
2022-10-24T13:41:26.265Z,99462.81
2022-10-24T13:43:57.023Z,99453.84
2022-10-24T13:46:32.772Z,99459.41
2022-10-24T13:49:03.067Z,99463.84
2022-10-24T13:51:41.753Z,99456.56
2022-10-24T13:54:15.944Z,99458.31
2022-10-24T13:56:46.265Z,99470.03
2022-10-24T13:59:30.989Z,99462.56
2022-10-24T14:02:00.683Z,99459.22
2022-10-24T14:04:30.919Z,99448.59
2022-10-24T14:07:03.809Z,99469.41
2022-10-24T14:09:39.588Z,99465.34
2022-10-24T14:12:07.481Z,99474.44
2022-10-24T14:14:41.031Z,99477.34
2022-10-24T14:17:23.322Z,99475.16
2022-10-24T14:19:56.028Z,99477.81
2022-10-24T14:22:27.125Z,99487.25
2022-10-24T14:24:55.593Z,99479.31
2022-10-24T14:27:24.408Z,99491.72
2022-10-24T14:29:59.535Z,99470.28
2022-10-24T14:32:28.959Z,99477.19
2022-10-24T14:37:31.571Z,99483.06
2022-10-24T14:40:01.040Z,99490.50
2022-10-24T14:42:29.657Z,99494.41
2022-10-24T14:44:58.601Z,99494.66
2022-10-24T14:47:29.898Z,99507.47
2022-10-24T14:50:01.833Z,99499.69
2022-10-24T14:52:36.484Z,99493.53
2022-10-24T14:55:07.162Z,99486.81
2022-10-24T14:57:37.803Z,99491.50
2022-10-24T15:00:09.691Z,99481.50
2022-10-24T15:02:42.916Z,99487.19
2022-10-24T15:05:29.943Z,99483.84
2022-10-24T15:08:21.178Z,99476.78
2022-10-24T15:10:50.537Z,99489.94
2022-10-24T15:13:21.447Z,99491.31
2022-10-24T15:15:53.317Z,99474.66
2022-10-24T15:18:23.598Z,99489.38
2022-10-24T15:20:55.806Z,99490.16
2022-10-24T15:23:28.162Z,99493.03
2022-10-24T15:26:02.422Z,99485.56
2022-10-24T15:28:39.337Z,99489.31
2022-10-24T15:31:11.262Z,99488.47
2022-10-24T15:36:18.291Z,99497.19
2022-10-24T15:38:46.302Z,99488.19
2022-10-24T15:41:14.077Z,99491.19
2022-10-24T15:43:41.976Z,99489.34
2022-10-24T15:46:09.815Z,99494.16
2022-10-24T15:48:38.421Z,99495.72
2022-10-24T15:51:06.753Z,99500.19
2022-10-24T15:53:35.882Z,99497.84
2022-10-24T15:56:03.692Z,99514.16
2022-10-24T15:58:31.557Z,99501.41
2022-10-24T16:01:00.189Z,99517.81
2022-10-24T16:03:28.104Z,99518.03
2022-10-24T16:05:58.123Z,99516.25
2022-10-24T16:08:26.169Z,99520.50
2022-10-24T16:10:55.401Z,99448.78
2022-10-24T16:13:23.998Z,99526.38
2022-10-24T16:15:51.886Z,99516.22
2022-10-24T16:18:19.788Z,99530.44
2022-10-24T16:20:47.688Z,99520.31
2022-10-24T16:23:17.468Z,99532.38
2022-10-24T16:25:45.570Z,99538.72
2022-10-24T16:28:15.686Z,99542.72
2022-10-24T16:30:43.633Z,99558.78
2022-10-24T16:33:11.491Z,99552.19
2022-10-24T16:35:40.376Z,99551.69
2022-10-24T16:38:09.777Z,99557.38
2022-10-24T16:40:42.372Z,99555.47
2022-10-24T16:43:15.390Z,99549.88
2022-10-24T16:45:46.988Z,99550.19
2022-10-24T16:48:14.912Z,99561.81
2022-10-24T16:50:46.486Z,99554.31
2022-10-24T16:53:18.196Z,99561.50
2022-10-24T16:55:48.521Z,99558.78
2022-10-24T16:58:16.363Z,99554.00
2022-10-24T17:00:45.947Z,99521.28
2022-10-24T17:03:14.024Z,99557.78
2022-10-24T17:05:43.933Z,99565.53
2022-10-24T17:08:11.546Z,99553.88
2022-10-24T17:10:39.257Z,99560.22
2022-10-24T17:13:07.574Z,99560.13
2022-10-24T17:15:35.551Z,99562.22
2022-10-24T17:18:04.834Z,99569.53
2022-10-24T17:20:32.492Z,99565.88
2022-10-24T17:23:02.982Z,99566.59
2022-10-24T17:25:33.433Z,99569.38
2022-10-24T17:28:01.253Z,99586.28
2022-10-24T17:30:29.681Z,99586.69
2022-10-24T17:32:58.161Z,99585.25
2022-10-24T17:35:28.481Z,99586.00
2022-10-24T17:38:08.690Z,99587.03
2022-10-24T17:40:42.517Z,99584.88
2022-10-24T17:43:19.133Z,99599.75
2022-10-24T17:45:47.342Z,99601.84
2022-10-24T17:48:15.233Z,99606.47
2022-10-24T17:50:44.353Z,99598.97
2022-10-24T17:53:12.675Z,99608.19
2022-10-24T17:55:46.316Z,99605.16
2022-10-24T17:58:15.773Z,99614.78
2022-10-24T18:00:43.939Z,99624.16
2022-10-24T18:03:11.732Z,99626.25
2022-10-24T18:05:39.838Z,99636.00
2022-10-24T18:08:10.683Z,99641.69
2022-10-24T18:10:38.941Z,99651.69
2022-10-24T18:13:07.613Z,99644.72
2022-10-24T18:15:35.318Z,99644.69
2022-10-24T18:18:02.937Z,99654.25
2022-10-24T18:20:32.022Z,99656.25
2022-10-24T18:23:00.463Z,99654.13
2022-10-24T18:25:29.594Z,99652.75
2022-10-24T18:27:57.527Z,99659.38
2022-10-24T18:30:27.274Z,99664.50
2022-10-24T18:32:54.989Z,99648.69
2022-10-24T18:35:22.863Z,99652.59
2022-10-24T18:40:23.115Z,99654.06
2022-10-24T18:42:56.082Z,99647.69
2022-10-24T18:45:27.041Z,99652.47
2022-10-24T18:47:55.275Z,99657.25
2022-10-24T18:50:24.871Z,99654.06
2022-10-24T18:52:59.566Z,99650.41
2022-10-24T18:55:29.204Z,99652.47
2022-10-24T18:57:59.443Z,99661.34
2022-10-24T19:00:29.608Z,99657.38
2022-10-24T19:03:11.945Z,99659.59
2022-10-24T19:05:43.930Z,99656.56
2022-10-24T19:08:14.347Z,99664.22
2022-10-24T19:10:42.254Z,99659.03
2022-10-24T19:13:11.449Z,99581.03
2022-10-24T19:15:43.671Z,99621.75
2022-10-24T19:18:14.784Z,99669.88
2022-10-24T19:20:42.648Z,99666.84
2022-10-24T19:23:12.288Z,99662.94
2022-10-24T19:25:40.017Z,99663.97
2022-10-24T19:28:08.247Z,99670.97
2022-10-24T19:30:38.004Z,99669.47
2022-10-24T19:33:05.686Z,99672.28
2022-10-24T19:35:33.334Z,99686.13
2022-10-24T19:38:00.922Z,99681.66
2022-10-24T19:40:28.593Z,99687.88
2022-10-24T19:42:56.212Z,99681.34
2022-10-24T19:45:25.189Z,99699.38
2022-10-24T19:47:55.985Z,99700.13
2022-10-24T19:50:23.684Z,99703.06
2022-10-24T19:52:51.285Z,99698.22
2022-10-24T19:55:18.995Z,99699.34
2022-10-24T19:57:46.816Z,99687.56
2022-10-24T20:00:15.205Z,99701.50
2022-10-24T20:02:42.866Z,99702.53
2022-10-24T20:05:30.866Z,99702.63
2022-10-24T20:08:18.787Z,99724.47
2022-10-24T20:11:07.274Z,99723.00
2022-10-24T20:13:55.183Z,99711.34
2022-10-24T20:16:43.100Z,99716.59
2022-10-24T20:19:31.134Z,99713.00
2022-10-24T20:22:20.413Z,99717.44
2022-10-24T20:25:08.846Z,99710.00
2022-10-24T20:27:56.750Z,99737.16
2022-10-24T20:30:47.676Z,99736.28
2022-10-24T20:33:35.858Z,99739.22
2022-10-24T20:36:23.734Z,99743.56
2022-10-24T20:39:13.496Z,99745.88
2022-10-24T20:42:01.367Z,99737.81
2022-10-24T20:44:49.231Z,99740.53
2022-10-24T20:47:37.135Z,99742.09
2022-10-24T20:50:25.012Z,99611.53
2022-10-24T20:53:12.915Z,99750.88
2022-10-24T20:56:06.331Z,99735.53
2022-10-24T20:58:56.078Z,99748.66
2022-10-24T21:01:44.267Z,99750.72
2022-10-24T21:04:32.343Z,99766.97
2022-10-24T21:07:20.186Z,99778.66
2022-10-24T21:10:08.462Z,99783.91
2022-10-24T21:12:57.750Z,99781.63
2022-10-24T21:15:45.653Z,99783.94
2022-10-24T21:18:33.546Z,99783.59
2022-10-24T21:21:22.559Z,99793.50
2022-10-24T21:24:15.206Z,99790.38
2022-10-24T21:27:03.140Z,99799.03
2022-10-24T21:29:52.392Z,99803.75
2022-10-24T21:32:40.398Z,99800.25
2022-10-24T21:35:28.325Z,99805.78
2022-10-24T21:38:16.198Z,99808.19
2022-10-24T21:41:05.807Z,99805.34
2022-10-24T21:43:54.770Z,99812.91
2022-10-24T21:46:44.301Z,99803.03
2022-10-24T21:49:32.196Z,99813.28
2022-10-24T21:52:20.061Z,99806.19
2022-10-24T21:55:08.596Z,99802.22
2022-10-24T21:57:56.475Z,99804.09
2022-10-24T22:00:44.375Z,99803.78
2022-10-24T22:03:33.740Z,99810.13
2022-10-24T22:06:22.330Z,99816.34
2022-10-24T22:09:13.264Z,99820.75
2022-10-24T22:12:01.117Z,99831.88
2022-10-24T22:14:49.464Z,99827.56
2022-10-24T22:17:37.457Z,99840.63
2022-10-24T22:20:26.725Z,99827.94
2022-10-24T22:23:14.948Z,99836.34
2022-10-24T22:26:02.824Z,99833.59
2022-10-24T22:28:50.767Z,99839.53
2022-10-24T22:31:39.407Z,99855.03
2022-10-24T22:34:28.364Z,99855.78
2022-10-24T22:37:25.567Z,99856.13
2022-10-24T22:40:23.109Z,99866.44
2022-10-24T22:43:12.019Z,99864.94
2022-10-24T22:46:12.257Z,99867.63
2022-10-24T22:49:05.355Z,99873.91
2022-10-24T22:51:53.843Z,99884.53
2022-10-24T22:54:43.888Z,99871.53
2022-10-24T22:57:32.469Z,99871.97
2022-10-24T23:00:21.511Z,99875.94
2022-10-24T23:03:17.086Z,99876.78
2022-10-24T23:06:11.718Z,99869.72
2022-10-24T23:08:59.594Z,99874.38
2022-10-24T23:11:49.515Z,99887.91
2022-10-24T23:14:37.908Z,99885.91
2022-10-24T23:17:27.794Z,99875.69
2022-10-24T23:20:25.142Z,99894.66
2022-10-24T23:23:28.286Z,99832.41
2022-10-24T23:26:27.125Z,99878.06
2022-10-24T23:29:25.739Z,99876.97
2022-10-24T23:32:20.367Z,99887.53
2022-10-24T23:35:09.953Z,99889.97
2022-10-24T23:37:58.288Z,99890.72
2022-10-24T23:40:46.738Z,99890.41
2022-10-24T23:43:35.102Z,99890.34
2022-10-24T23:46:29.533Z,99891.91
2022-10-24T23:49:25.630Z,99893.50
2022-10-24T23:52:23.748Z,99895.38
2022-10-24T23:55:13.426Z,99894.19
2022-10-24T23:58:01.875Z,99892.28
